createdAt,value
2019-03-23T00:01:32.100Z,18.45
2019-03-23T00:04:08.951Z,18.55
2019-03-23T00:06:59.792Z,18.80
2019-03-23T00:09:37.193Z,18.77
2019-03-23T00:12:27.526Z,19.02
2019-03-23T00:15:03.984Z,18.77
2019-03-23T00:17:54.846Z,17.73
2019-03-23T00:20:31.453Z,17.90
2019-03-23T00:23:22.283Z,18.25
2019-03-23T00:25:58.990Z,17.65
2019-03-23T00:28:49.049Z,18.00
2019-03-23T00:31:25.672Z,17.52
2019-03-23T00:34:15.859Z,18.00
2019-03-23T00:36:53.066Z,16.93
2019-03-23T00:39:43.649Z,16.73
2019-03-23T00:42:27.419Z,17.77
2019-03-23T00:45:17.403Z,16.05
2019-03-23T00:47:54.650Z,17.42
2019-03-23T00:50:44.920Z,17.35
2019-03-23T00:53:28.629Z,16.15
2019-03-23T00:56:25.250Z,16.48
2019-03-23T00:59:14.980Z,16.15
2019-03-23T01:01:51.339Z,16.00
2019-03-23T01:04:34.315Z,15.95
2019-03-23T01:07:18.522Z,16.12
2019-03-23T01:10:02.194Z,15.20
2019-03-23T01:12:57.494Z,14.73
2019-03-23T01:15:48.148Z,15.58
2019-03-23T01:18:24.522Z,15.18
2019-03-23T01:21:14.456Z,15.10
2019-03-23T01:23:57.641Z,15.05
2019-03-23T01:26:53.794Z,14.87
2019-03-23T01:29:43.283Z,15.13
2019-03-23T01:32:33.489Z,15.03
2019-03-23T01:35:29.747Z,14.58
2019-03-23T01:38:19.035Z,15.43
2019-03-23T01:40:55.324Z,14.20
2019-03-23T01:43:45.423Z,15.08
2019-03-23T01:46:22.707Z,14.15
2019-03-23T01:49:13.399Z,14.85
2019-03-23T01:51:57.110Z,13.93
2019-03-23T01:54:46.491Z,14.35
2019-03-23T01:57:29.654Z,13.08
2019-03-23T02:00:20.951Z,13.83
2019-03-23T02:03:04.423Z,13.38
2019-03-23T02:05:53.956Z,13.70
2019-03-23T02:08:36.869Z,13.62
2019-03-23T02:11:37.836Z,13.28
2019-03-23T02:14:41.598Z,13.60
2019-03-23T02:17:33.171Z,13.45
2019-03-23T02:20:20.650Z,12.85
2019-03-23T02:23:18.653Z,14.10
2019-03-23T02:26:11.819Z,13.95
2019-03-23T02:28:50.666Z,12.58
2019-03-23T02:31:40.352Z,13.58
2019-03-23T02:34:23.811Z,12.85
2019-03-23T02:37:27.632Z,12.93
2019-03-23T02:40:22.995Z,13.62
2019-03-23T02:43:19.120Z,12.85
2019-03-23T02:46:15.634Z,12.03
2019-03-23T02:49:05.343Z,12.25
2019-03-23T02:51:48.746Z,12.63
2019-03-23T02:54:46.234Z,12.23
2019-03-23T02:57:37.366Z,12.90
2019-03-23T03:00:17.582Z,12.37
2019-03-23T03:03:07.834Z,12.03
2019-03-23T03:05:50.963Z,11.57
2019-03-23T03:08:46.108Z,11.43
2019-03-23T03:11:42.543Z,11.63
2019-03-23T03:14:37.945Z,11.48
2019-03-23T03:17:33.370Z,11.05
2019-03-23T03:20:24.255Z,10.95
2019-03-23T03:23:01.031Z,12.63
2019-03-23T03:25:51.255Z,11.57
2019-03-23T03:28:28.260Z,12.05
2019-03-23T03:31:18.018Z,11.75
2019-03-23T03:34:07.832Z,11.57
2019-03-23T03:37:02.984Z,11.30
2019-03-23T03:39:58.941Z,11.10
2019-03-23T03:42:55.132Z,11.25
2019-03-23T03:45:51.710Z,12.43
2019-03-23T03:48:47.440Z,10.98
2019-03-23T03:51:29.822Z,9.88
2019-03-23T03:54:19.546Z,9.95
2019-03-23T03:57:02.873Z,10.10
2019-03-23T03:59:45.160Z,10.05
2019-03-23T04:02:28.800Z,10.70
2019-03-23T04:05:12.397Z,10.40
2019-03-23T04:08:09.879Z,10.28
2019-03-23T04:10:41.821Z,10.43
2019-03-23T04:13:25.667Z,10.38
2019-03-23T04:16:22.966Z,10.65
2019-03-23T04:19:05.552Z,10.32
2019-03-23T04:21:55.756Z,9.70
2019-03-23T04:24:32.666Z,9.38
2019-03-23T04:27:22.122Z,9.73
2019-03-23T04:30:20.928Z,9.85
2019-03-23T04:33:17.580Z,9.98
2019-03-23T04:36:06.803Z,9.05
2019-03-23T04:38:43.023Z,9.48
2019-03-23T04:41:32.855Z,8.20
2019-03-23T04:44:15.883Z,8.28
2019-03-23T04:47:12.368Z,7.87
2019-03-23T04:50:08.847Z,8.50
2019-03-23T04:53:04.963Z,8.75
2019-03-23T04:55:54.126Z,8.85
2019-03-23T04:58:31.630Z,9.15
2019-03-23T05:01:21.982Z,8.78
2019-03-23T05:04:05.510Z,9.20
2019-03-23T05:06:48.635Z,9.00
2019-03-23T05:09:38.299Z,9.25
2019-03-23T05:12:14.996Z,9.48
2019-03-23T05:15:04.855Z,10.08
2019-03-23T05:17:54.026Z,9.95
2019-03-23T05:20:42.698Z,9.48
2019-03-23T05:23:32.996Z,8.98
2019-03-23T05:26:16.505Z,9.38
2019-03-23T05:29:06.486Z,9.40
2019-03-23T05:31:49.463Z,9.30
2019-03-23T05:34:44.843Z,9.58
2019-03-23T05:37:34.179Z,9.48
2019-03-23T05:40:14.050Z,9.58
2019-03-23T05:43:04.937Z,9.35
2019-03-23T05:45:48.439Z,10.30
2019-03-23T05:48:38.398Z,9.43
2019-03-23T05:51:22.163Z,8.90
2019-03-23T05:54:11.868Z,9.03
2019-03-23T05:56:48.271Z,8.58
2019-03-23T05:59:38.286Z,8.70
2019-03-23T06:02:21.002Z,7.83
2019-03-23T06:05:04.863Z,8.60
2019-03-23T06:07:47.910Z,7.78
2019-03-23T06:10:31.740Z,8.08
2019-03-23T06:13:15.925Z,8.08
2019-03-23T06:15:59.158Z,8.28
2019-03-23T06:18:48.071Z,8.88
2019-03-23T06:21:32.241Z,8.60
2019-03-23T06:24:14.642Z,8.98
2019-03-23T06:26:58.850Z,9.20
2019-03-23T06:29:42.018Z,8.95
2019-03-23T06:32:24.792Z,9.15
2019-03-23T06:35:14.155Z,13.78
2019-03-23T06:38:10.385Z,11.95
2019-03-23T06:41:06.735Z,9.80
2019-03-23T06:44:02.863Z,10.53
2019-03-23T06:46:59.934Z,11.20
2019-03-23T06:49:49.656Z,10.25
2019-03-23T06:52:26.896Z,10.20
2019-03-23T06:55:16.910Z,10.20
2019-03-23T06:58:01.103Z,9.90
2019-03-23T07:00:57.957Z,10.75
2019-03-23T07:03:47.980Z,10.38
2019-03-23T07:06:25.155Z,10.80
2019-03-23T07:09:16.689Z,10.98
2019-03-23T07:12:00.899Z,10.95
2019-03-23T07:14:44.586Z,10.32
2019-03-23T07:17:41.087Z,10.28
2019-03-23T07:20:30.784Z,10.05
2019-03-23T07:23:06.955Z,10.55
2019-03-23T07:25:57.418Z,10.55
2019-03-23T07:28:33.847Z,10.38
2019-03-23T07:31:25.471Z,11.68
2019-03-23T07:34:06.255Z,11.50
2019-03-23T07:36:56.933Z,10.80
2019-03-23T07:39:33.563Z,10.03
2019-03-23T07:42:24.646Z,10.08
2019-03-23T07:45:01.471Z,10.75
2019-03-23T07:47:52.258Z,11.05
2019-03-23T07:50:29.085Z,10.60
2019-03-23T07:53:19.508Z,10.50
2019-03-23T07:56:03.308Z,9.88
2019-03-23T07:59:00.303Z,10.18
2019-03-23T08:01:56.911Z,10.58
2019-03-23T08:04:46.515Z,11.10
2019-03-23T08:07:29.443Z,10.78
2019-03-23T08:10:36.162Z,12.03
2019-03-23T08:13:32.599Z,10.60
2019-03-23T08:16:29.651Z,11.48
2019-03-23T08:19:26.036Z,9.10
2019-03-23T08:22:22.180Z,11.95
2019-03-23T08:25:20.060Z,12.20
2019-03-23T08:28:10.362Z,11.68
2019-03-23T08:30:47.262Z,12.35
2019-03-23T08:33:37.659Z,12.60
2019-03-23T08:36:14.779Z,12.90
2019-03-23T08:39:05.604Z,10.53
2019-03-23T08:41:48.906Z,12.43
2019-03-23T08:44:38.565Z,7.95
2019-03-23T08:47:14.931Z,7.42
2019-03-23T08:50:05.189Z,7.60
2019-03-23T08:52:47.745Z,25.35
2019-03-23T08:55:30.912Z,10.23
2019-03-23T08:58:14.784Z,8.80
2019-03-23T09:00:58.275Z,8.90
2019-03-23T09:03:51.782Z,9.30
2019-03-23T09:06:27.787Z,9.38
2019-03-23T09:09:12.264Z,8.60
2019-03-23T09:11:55.601Z,9.15
2019-03-23T09:14:38.832Z,8.03
2019-03-23T09:17:24.373Z,6.62
2019-03-23T09:20:24.326Z,7.05
2019-03-23T09:23:14.829Z,7.20
2019-03-23T09:26:04.984Z,7.33
2019-03-23T09:28:42.291Z,7.37
2019-03-23T09:31:36.030Z,7.60
2019-03-23T09:34:12.547Z,7.85
2019-03-23T09:37:03.200Z,7.12
2019-03-23T09:39:39.696Z,6.72
2019-03-23T09:42:29.741Z,7.28
2019-03-23T09:45:19.079Z,7.75
2019-03-23T09:47:56.158Z,7.97
2019-03-23T09:50:46.531Z,8.55
2019-03-23T09:53:30.110Z,6.90
2019-03-23T09:56:19.684Z,7.15
2019-03-23T09:59:10.507Z,7.65
2019-03-23T10:01:54.140Z,7.30
2019-03-23T10:04:39.184Z,7.25
2019-03-23T10:07:24.830Z,8.10
2019-03-23T10:10:08.612Z,8.23
2019-03-23T10:12:52.534Z,7.37
2019-03-23T10:15:36.921Z,6.55
2019-03-23T10:18:20.446Z,6.20
2019-03-23T10:21:17.569Z,6.87
2019-03-23T10:24:13.061Z,6.87
2019-03-23T10:27:04.076Z,7.17
2019-03-23T10:29:40.961Z,7.33
2019-03-23T10:32:31.323Z,7.72
2019-03-23T10:35:14.368Z,8.00
2019-03-23T10:38:04.821Z,7.53
2019-03-23T10:40:42.997Z,7.85
2019-03-23T10:43:32.839Z,7.78
2019-03-23T10:46:09.024Z,7.50
2019-03-23T10:48:59.381Z,7.85
2019-03-23T10:51:36.316Z,7.50
2019-03-23T10:54:27.421Z,8.20
2019-03-23T10:57:04.023Z,7.12
2019-03-23T10:59:54.770Z,7.35
2019-03-23T11:02:38.636Z,7.33
2019-03-23T11:05:28.531Z,7.17
2019-03-23T11:08:05.182Z,7.33
2019-03-23T11:10:54.786Z,7.72
2019-03-23T11:13:31.205Z,7.40
2019-03-23T11:16:22.456Z,7.53
2019-03-23T11:18:59.391Z,7.40
2019-03-23T11:21:55.945Z,7.75
2019-03-23T11:24:45.839Z,7.22
2019-03-23T11:27:28.569Z,7.60
2019-03-23T11:30:26.107Z,7.40
2019-03-23T11:33:22.317Z,7.85
2019-03-23T11:36:11.494Z,7.58
2019-03-23T11:38:54.563Z,6.97
2019-03-23T11:41:45.805Z,6.85
2019-03-23T11:44:29.111Z,7.90
2019-03-23T11:47:25.737Z,7.10
2019-03-23T11:50:17.002Z,7.20
2019-03-23T11:52:53.022Z,6.60
2019-03-23T11:55:42.460Z,7.70
2019-03-23T11:58:18.993Z,6.97
2019-03-23T12:01:08.785Z,7.72
2019-03-23T12:03:51.580Z,7.22
2019-03-23T12:06:33.980Z,7.28
2019-03-23T12:09:17.374Z,6.92
2019-03-23T12:12:00.677Z,6.83
2019-03-23T12:14:44.407Z,6.62
2019-03-23T12:17:27.264Z,6.80
2019-03-23T12:20:12.162Z,7.10
2019-03-23T12:22:56.714Z,6.45
2019-03-23T12:25:46.803Z,7.28
2019-03-23T12:28:30.021Z,8.35
2019-03-23T12:31:12.910Z,6.67
2019-03-23T12:33:56.055Z,6.55
2019-03-23T12:36:41.219Z,7.37
2019-03-23T12:39:23.914Z,7.20
2019-03-23T12:42:13.039Z,6.92
2019-03-23T12:44:56.389Z,6.75
2019-03-23T12:47:40.778Z,7.00
2019-03-23T12:50:24.616Z,6.80
2019-03-23T12:53:06.806Z,6.67
2019-03-23T12:55:50.686Z,7.22
2019-03-23T12:58:33.357Z,7.33
2019-03-23T13:01:16.271Z,7.37
2019-03-23T13:03:59.883Z,7.85
2019-03-23T13:06:42.261Z,7.65
2019-03-23T13:09:33.533Z,8.13
2019-03-23T13:12:09.795Z,8.03
2019-03-23T13:15:00.737Z,85.95
2019-03-23T13:17:37.100Z,8.63
2019-03-23T13:20:26.992Z,7.70
2019-03-23T13:23:10.131Z,7.12
2019-03-23T13:25:54.009Z,8.03
2019-03-23T13:28:37.494Z,7.85
2019-03-23T13:31:29.674Z,7.60
2019-03-23T13:34:07.333Z,8.08
2019-03-23T13:36:57.552Z,7.95
2019-03-23T13:39:52.664Z,7.72
2019-03-23T13:42:49.135Z,7.90
2019-03-23T13:45:46.684Z,8.48
2019-03-23T13:48:35.670Z,8.83
2019-03-23T13:51:18.275Z,8.48
2019-03-23T13:54:14.020Z,9.05
2019-03-23T13:57:09.697Z,9.30
2019-03-23T13:59:57.818Z,8.98
2019-03-23T14:05:24.053Z,8.90
2019-03-23T14:08:00.027Z,8.95
2019-03-23T14:10:50.031Z,8.78
2019-03-23T14:13:27.851Z,9.20
2019-03-23T14:16:17.446Z,9.60
2019-03-23T14:19:00.951Z,10.15
2019-03-23T14:21:45.208Z,9.48
2019-03-23T14:24:34.579Z,9.50
2019-03-23T14:27:18.744Z,10.65
2019-03-23T14:30:08.284Z,9.23
2019-03-23T14:32:44.726Z,10.03
2019-03-23T14:35:34.756Z,9.40
2019-03-23T14:38:18.476Z,9.40
2019-03-23T14:41:01.249Z,9.48
2019-03-23T14:43:50.058Z,9.63
2019-03-23T14:46:39.439Z,9.33
2019-03-23T14:49:22.722Z,9.33
2019-03-23T14:52:19.319Z,9.63
2019-03-23T14:55:08.956Z,10.18
2019-03-23T14:57:47.567Z,10.05
2019-03-23T15:00:37.322Z,10.68
2019-03-23T15:03:22.215Z,10.58
2019-03-23T15:06:19.997Z,10.10
2019-03-23T15:09:16.250Z,10.18
2019-03-23T15:12:15.106Z,9.93
2019-03-23T15:14:50.174Z,10.68
2019-03-23T15:17:48.476Z,9.33
2019-03-23T15:20:18.795Z,9.98
2019-03-23T15:23:08.909Z,9.25
2019-03-23T15:25:44.916Z,9.70
2019-03-23T15:28:36.057Z,9.73
2019-03-23T15:31:13.745Z,10.28
2019-03-23T15:34:05.738Z,10.32
2019-03-23T15:36:49.902Z,10.88
2019-03-23T15:39:46.059Z,11.10
2019-03-23T15:42:43.519Z,10.93
2019-03-23T15:45:33.069Z,10.05
2019-03-23T15:48:15.830Z,10.20
2019-03-23T15:51:11.175Z,10.13
2019-03-23T15:53:53.186Z,10.32
2019-03-23T15:59:18.669Z,9.80
2019-03-23T16:02:07.607Z,10.98
2019-03-23T16:04:46.286Z,11.50
2019-03-23T16:07:36.027Z,10.65
2019-03-23T16:10:12.160Z,10.13
2019-03-23T16:13:03.967Z,10.32
2019-03-23T16:15:46.145Z,10.68
2019-03-23T16:18:29.050Z,10.05
2019-03-23T16:21:12.166Z,9.70
2019-03-23T16:23:54.783Z,9.93
2019-03-23T16:26:36.743Z,10.15
2019-03-23T16:29:19.182Z,9.60
2019-03-23T16:32:01.595Z,9.93
2019-03-23T16:34:46.670Z,10.45
2019-03-23T16:37:29.100Z,10.95
2019-03-23T16:40:13.669Z,10.80
2019-03-23T16:42:56.659Z,10.32
2019-03-23T16:45:39.111Z,9.75
2019-03-23T16:48:22.029Z,10.50
2019-03-23T16:51:05.419Z,10.65
2019-03-23T16:53:48.788Z,10.15
2019-03-23T16:56:33.959Z,9.80
2019-03-23T16:59:15.961Z,10.75
2019-03-23T17:01:58.679Z,11.55
2019-03-23T17:04:41.589Z,10.65
2019-03-23T17:07:31.026Z,11.20
2019-03-23T17:10:07.820Z,10.82
2019-03-23T17:12:57.623Z,11.12
2019-03-23T17:15:34.529Z,10.75
2019-03-23T17:18:24.600Z,11.78
2019-03-23T17:21:00.453Z,9.75
2019-03-23T17:23:50.755Z,11.08
2019-03-23T17:26:48.351Z,10.60
2019-03-23T17:29:38.274Z,11.85
2019-03-23T17:32:21.490Z,15.48
2019-03-23T17:35:04.125Z,12.60
2019-03-23T17:37:47.007Z,11.88
2019-03-23T17:40:43.365Z,10.80
2019-03-23T17:43:41.001Z,10.03
2019-03-23T17:46:30.207Z,11.15
2019-03-23T17:49:07.957Z,12.30
2019-03-23T17:51:56.894Z,13.70
2019-03-23T17:54:39.690Z,13.88
2019-03-23T17:57:23.196Z,73.05
2019-03-23T18:00:07.215Z,28.83
2019-03-23T18:02:50.293Z,19.75
2019-03-23T18:05:33.739Z,15.18
2019-03-23T18:08:16.722Z,15.70
2019-03-23T18:11:06.958Z,15.48
2019-03-23T18:13:50.113Z,14.45
2019-03-23T18:16:32.957Z,14.95
2019-03-23T18:19:15.501Z,15.03
2019-03-23T18:21:59.234Z,14.78
2019-03-23T18:24:42.855Z,15.63
2019-03-23T18:27:37.876Z,18.30
2019-03-23T18:30:55.551Z,17.37
2019-03-23T18:33:44.753Z,17.10
2019-03-23T18:36:21.031Z,18.05
2019-03-23T18:39:12.022Z,18.80
2019-03-23T18:41:48.064Z,18.07
2019-03-23T18:44:37.381Z,18.05
2019-03-23T18:47:13.832Z,18.98
2019-03-23T18:50:02.435Z,18.45
2019-03-23T18:52:39.987Z,17.75
2019-03-23T18:55:29.215Z,18.05
2019-03-23T18:58:19.202Z,19.60
2019-03-23T19:00:55.383Z,19.27
2019-03-23T19:03:44.964Z,18.77
2019-03-23T19:06:28.030Z,19.73
2019-03-23T19:09:13.313Z,20.80
2019-03-23T19:11:55.798Z,21.90
2019-03-23T19:14:38.414Z,22.02
2019-03-23T19:17:20.512Z,21.60
2019-03-23T19:20:04.114Z,21.87
2019-03-23T19:22:46.437Z,20.88
2019-03-23T19:25:30.090Z,19.75
2019-03-23T19:28:13.083Z,20.62
2019-03-23T19:30:55.152Z,19.45
2019-03-23T19:33:37.277Z,19.00
2019-03-23T19:36:26.890Z,20.00
2019-03-23T19:39:02.930Z,19.10
2019-03-23T19:41:52.447Z,19.85
2019-03-23T19:44:29.034Z,18.75
2019-03-23T19:47:18.168Z,20.25
2019-03-23T19:50:01.329Z,19.85
2019-03-23T19:52:43.827Z,19.67
2019-03-23T19:55:25.975Z,20.02
2019-03-23T19:58:14.768Z,19.87
2019-03-23T20:00:57.801Z,20.92
2019-03-23T20:03:41.469Z,20.17
2019-03-23T20:06:23.702Z,19.87
2019-03-23T20:09:06.408Z,21.25
2019-03-23T20:11:48.457Z,20.48
2019-03-23T20:14:31.692Z,19.48
2019-03-23T20:17:15.173Z,19.77
2019-03-23T20:19:58.656Z,20.10
2019-03-23T20:22:41.269Z,20.65
2019-03-23T20:25:23.104Z,19.62
2019-03-23T20:28:06.280Z,21.17
2019-03-23T20:30:55.911Z,20.97
2019-03-23T20:33:39.135Z,21.82
2019-03-23T20:36:22.823Z,21.52
2019-03-23T20:39:06.203Z,21.20
2019-03-23T20:41:56.632Z,21.75
2019-03-23T20:44:33.629Z,20.80
2019-03-23T20:47:23.846Z,21.25
2019-03-23T20:50:00.457Z,22.00
2019-03-23T20:52:49.822Z,21.57
2019-03-23T20:55:26.998Z,21.60
2019-03-23T20:58:16.558Z,21.00
2019-03-23T21:01:00.158Z,22.02
2019-03-23T21:03:41.991Z,20.85
2019-03-23T21:06:24.746Z,22.93
2019-03-23T21:09:16.126Z,25.65
2019-03-23T21:11:51.912Z,26.30
2019-03-23T21:14:41.210Z,26.17
2019-03-23T21:17:24.017Z,25.55
2019-03-23T21:20:07.406Z,27.25
2019-03-23T21:22:49.906Z,26.75
2019-03-23T21:25:33.400Z,27.35
2019-03-23T21:28:16.827Z,27.02
2019-03-23T21:31:12.545Z,27.13
2019-03-23T21:34:01.206Z,25.50
2019-03-23T21:36:43.746Z,24.27
2019-03-23T21:39:33.120Z,24.30
2019-03-23T21:42:09.010Z,24.25
2019-03-23T21:44:58.247Z,24.92
2019-03-23T21:47:34.958Z,23.18
2019-03-23T21:50:24.887Z,22.40
2019-03-23T21:53:01.396Z,24.43
2019-03-23T21:55:50.694Z,24.65
2019-03-23T21:58:26.361Z,23.85
2019-03-23T22:01:17.220Z,25.08
2019-03-23T22:03:53.232Z,25.62
2019-03-23T22:06:42.975Z,26.50
2019-03-23T22:09:20.545Z,25.35
2019-03-23T22:12:11.570Z,26.25
2019-03-23T22:14:48.442Z,25.52
2019-03-23T22:17:40.347Z,25.20
2019-03-23T22:20:16.523Z,23.85
2019-03-23T22:23:05.673Z,23.27
2019-03-23T22:25:42.256Z,22.05
2019-03-23T22:28:31.014Z,23.80
2019-03-23T22:31:07.808Z,23.10
2019-03-23T22:33:57.109Z,22.48
2019-03-23T22:36:34.457Z,23.20
2019-03-23T22:39:25.001Z,23.90
2019-03-23T22:42:00.982Z,23.20
2019-03-23T22:44:52.724Z,23.60
2019-03-23T22:47:34.582Z,23.40
2019-03-23T22:50:24.972Z,22.80
2019-03-23T22:53:13.562Z,22.55
2019-03-23T22:55:49.835Z,23.02
2019-03-23T22:58:40.135Z,23.22
2019-03-23T23:01:16.208Z,22.65
2019-03-23T23:06:41.454Z,24.92
2019-03-23T23:09:30.960Z,24.47
2019-03-23T23:12:14.298Z,22.98
2019-03-23T23:15:04.438Z,23.00
2019-03-23T23:17:44.267Z,22.87
2019-03-23T23:20:41.403Z,23.20
2019-03-23T23:23:38.215Z,22.67
2019-03-23T23:26:34.079Z,22.82
2019-03-23T23:29:25.267Z,22.25
2019-03-23T23:32:02.244Z,21.62
2019-03-23T23:34:53.032Z,21.25
2019-03-23T23:37:30.765Z,22.55
2019-03-23T23:40:20.732Z,21.27
2019-03-23T23:42:56.762Z,21.80
2019-03-23T23:45:46.837Z,23.83
2019-03-23T23:48:22.645Z,21.77
2019-03-23T23:51:12.683Z,21.05
2019-03-23T23:53:50.031Z,20.97
2019-03-23T23:56:40.411Z,20.43
2019-03-23T23:59:17.055Z,21.85
